Ana Sayfa
METAR-TAF:

METAR-TAF

Havaalanları :

Gran Canaria Havalimanı

Gran Canaria, İspanya

Enlem: 27-56N, Boylam: 015-23W, yükseklik: 23 m

Güncel hava durumu gözlemi

Rapor saat 21:30 UTC de 24 dakika önce yapıldı.
Rüzgar kuzeydan 9 kt
Sıcaklık 19°C
Nem 68%
Basınç 1015 hPa
Görüş mesafesi 10 km veya daha fazla
4000 ft yükseklikte az bulutlu
5500 ft yükseklikte parçalı bulutlu

METAR: GCLP 192130Z 35009KT 9999 FEW040 SCT055 19/13 Q1015 NOSIG

Saat: 21:54 (21:54 UTC)

Tahmin

Rapor saat 20:00 UTC de 1 saat ve 54 dakika önce yapıldı.
Ayın 19'si saat 21 UTC'den ayın 20'si saat 21 UTC'ye kadar geçerli Tahmin
Rüzgar kuzeybatıdan 6 kt
Görüş mesafesi 10 km veya daha fazla
4000 ft yükseklikte parçalı bulutlu
Dönüşüyor
ayın 20'si saat 10 UTC'den ayın 20'si saat 12 UTC'ye kadar
Rüzgar güneydoğudan 10 kt

TAF: GCLP 192000Z 1921/2021 32006KT 9999 SCT040 TX24/2013Z TN15/2006Z BECMG 2010/2012 14010KT

4.000'den fazla havaalanı için hava durumu gözlemleri ve tahminleri (METAR ve TAF raporları).

Kullanılabilir istasyonlar harita üzerinde sarı ve kırmızı noktalarla gösterilir.

İstasyonun adını görmek için fareyi noktanın üzerinde gezdirin.

Sonrasında hava gözlem ve tahminlerini görmek için tıklayın.

Haritayı değiştirmek için: yaklaştırmak için siyah artı işaretli yeşil düğmeye ve uzaklaştırmak için de eksi işaretli düğmeye hızla tıklayın; bitişik haritalar için yeşil okları kullanın.


METAR-TAF: